Time;durP1;ratioP1;P1;durP2;ratioP2;P2;SDS_P1;SDS_P2;PMS_P1;PMS_P2;Temp;Humidity;BMP_temperature;BMP_pressure;BME280_temperature;BME280_humidity;BME280_pressure;Samples;Min_cycle;Max_cycle;Signal;HPM_P1;HPM_P2
2023/09/17 00:00:44;;;;;;;;;8.00;7.00;;;;;23.92;64.14;99593.06;5077457;28;45563;-83
2023/09/17 00:03:10;;;;;;;;;4.33;4.33;;;;;23.86;64.53;99581.78;5059062;28;45241;-83
2023/09/17 00:05:36;;;;;;;;;7.00;5.67;;;;;23.80;64.00;99561.56;5077350;28;45519;-82
2023/09/17 00:08:03;;;;;;;;;6.00;5.00;;;;;23.99;63.48;99589.25;5059051;28;45569;-83
2023/09/17 00:10:30;;;;;;;;;6.33;6.33;;;;;23.91;63.38;99577.13;5077060;28;46387;-84
2023/09/17 00:12:55;;;;;;;;;9.33;8.00;;;;;24.07;63.95;99612.06;5076937;28;45278;-81
2023/09/17 00:15:23;;;;;;;;;6.00;6.00;;;;;24.07;63.56;99606.72;5076954;28;45348;-81
2023/09/17 00:17:49;;;;;;;;;6.00;6.00;;;;;24.09;63.24;99599.50;5059193;28;45437;-81
2023/09/17 00:20:15;;;;;;;;;5.33;5.33;;;;;24.09;63.29;99600.38;5058623;28;46440;-81
2023/09/17 00:22:41;;;;;;;;;7.00;6.67;;;;;23.06;63.32;99420.53;5058317;28;45382;-82
2023/09/17 00:25:07;;;;;;;;;6.67;6.00;;;;;23.90;64.20;99568.25;5076956;28;45531;-84
2023/09/17 00:27:33;;;;;;;;;6.00;6.00;;;;;23.79;63.20;99538.47;5077193;28;45430;-83
2023/09/17 00:29:59;;;;;;;;;6.67;6.67;;;;;23.92;63.35;99565.53;5059041;28;45482;-83
2023/09/17 00:32:25;;;;;;;;;7.67;6.00;;;;;23.96;63.34;99573.34;5062151;28;45503;-81
2023/09/17 00:34:51;;;;;;;;;6.00;6.00;;;;;23.96;62.80;99565.34;5062093;28;45330;-81
2023/09/17 00:37:17;;;;;;;;;7.00;6.00;;;;;23.99;63.83;99559.00;5062628;28;45509;-81
2023/09/17 00:39:43;;;;;;;;;7.00;7.00;;;;;24.10;63.12;99575.44;5080320;28;45316;-82
2023/09/17 00:42:09;;;;;;;;;6.00;6.00;;;;;23.86;63.90;99534.66;5061800;27;45507;-83
2023/09/17 00:44:35;;;;;;;;;6.67;6.00;;;;;24.04;63.73;99566.84;5062061;28;45503;-82
2023/09/17 00:47:03;;;;;;;;;6.67;6.00;;;;;24.09;63.04;99580.84;5062001;28;45358;-81
2023/09/17 00:49:29;;;;;;;;;8.00;7.00;;;;;23.90;62.92;99552.25;5080013;28;45494;-81
2023/09/17 00:51:56;;;;;;;;;9.00;8.67;;;;;24.11;62.81;99586.97;5080053;27;46163;-81
2023/09/17 00:54:29;;;;;;;;;5.33;5.33;;;;;24.14;62.81;99589.53;5079848;28;45418;-83
2023/09/17 00:56:56;;;;;;;;;9.33;9.00;;;;;23.94;63.20;99551.19;5062020;27;45547;-83
2023/09/17 00:59:23;;;;;;;;;7.67;7.00;;;;;24.09;63.13;99578.16;5061582;28;47091;-81
2023/09/17 01:01:49;;;;;;;;;8.00;7.33;;;;;24.15;63.42;99591.25;5080084;28;45458;-81
2023/09/17 01:04:16;;;;;;;;;10.67;10.00;;;;;23.97;63.51;99559.09;5079911;28;45541;-81
2023/09/17 01:06:42;;;;;;;;;6.67;6.67;;;;;24.06;63.26;99570.31;5080120;28;45419;-81
2023/09/17 01:09:10;;;;;;;;;6.67;6.00;;;;;23.89;63.50;99541.66;5079591;28;45962;-84
2023/09/17 01:11:35;;;;;;;;;7.33;7.00;;;;;24.05;63.28;99565.88;5079418;28;45536;-81
2023/09/17 01:14:15;;;;;;;;;8.00;7.00;;;;;23.96;63.14;99552.00;5079237;28;45430;-83
2023/09/17 01:16:45;;;;;;;;;7.00;5.00;;;;;24.16;63.31;99588.53;5061806;28;45793;-83
2023/09/17 01:19:28;;;;;;;;;6.00;6.00;;;;;24.01;63.33;99558.03;5079552;28;46038;-84
2023/09/17 01:22:20;;;;;;;;;7.00;7.00;;;;;24.10;63.54;99579.91;5061142;28;45485;-83
2023/09/17 01:25:11;;;;;;;;;6.33;5.67;;;;;24.08;63.69;99571.13;5052839;28;45514;-83
2023/09/17 01:27:39;;;;;;;;;7.00;6.00;;;;;24.08;63.05;99566.63;5061517;28;45436;-81
2023/09/17 01:30:15;;;;;;;;;6.33;6.33;;;;;24.13;62.77;99566.44;5060960;28;47054;-81
2023/09/17 01:32:42;;;;;;;;;7.00;7.00;;;;;24.01;62.82;99541.13;5079502;27;45285;-83
2023/09/17 01:35:11;;;;;;;;;5.00;5.00;;;;;23.88;62.66;99510.59;5079499;28;45318;-84
2023/09/17 01:37:41;;;;;;;;;4.67;3.67;;;;;24.16;62.46;99566.31;5079708;28;45434;-83
2023/09/17 01:40:10;;;;;;;;;6.00;5.67;;;;;24.11;61.71;99538.94;5078998;28;46030;-81
2023/09/17 01:42:43;;;;;;;;;6.00;5.00;;;;;24.25;62.11;99563.25;5078325;28;45268;-83
2023/09/17 01:45:12;;;;;;;;;7.00;7.00;;;;;24.12;62.13;99541.56;5079304;27;45252;-83
2023/09/17 01:47:39;;;;;;;;;7.33;7.00;;;;;24.20;62.65;99552.78;5061363;28;45378;-82
2023/09/17 01:50:06;;;;;;;;;5.33;5.00;;;;;24.09;61.60;99514.13;5078761;28;46016;-83
2023/09/17 01:52:33;;;;;;;;;6.33;6.00;;;;;24.02;61.75;99501.06;5078360;28;45386;-83
2023/09/17 01:55:01;;;;;;;;;7.67;5.00;;;;;24.28;60.94;99535.59;5060864;28;45995;-82
2023/09/17 01:57:26;;;;;;;;;6.00;5.00;;;;;24.26;60.76;99521.44;5060837;28;45624;-83
2023/09/17 01:59:52;;;;;;;;;8.00;4.67;;;;;24.28;60.92;99531.09;5060529;28;48227;-83
2023/09/17 02:02:18;;;;;;;;;6.00;6.00;;;;;24.38;60.77;99551.13;5060493;28;45434;-83
2023/09/17 02:04:43;;;;;;;;;7.00;6.33;;;;;24.37;60.37;99533.41;5078878;28;45473;-81
2023/09/17 02:07:09;;;;;;;;;6.33;6.00;;;;;24.16;59.93;99475.59;5079348;28;45427;-83
2023/09/17 02:09:35;;;;;;;;;8.33;7.00;;;;;24.30;59.79;99486.53;5078677;28;46411;-81
2023/09/17 02:12:00;;;;;;;;;6.00;5.00;;;;;24.18;59.83;99455.06;5078284;28;45300;-84
2023/09/17 02:14:26;;;;;;;;;6.33;6.00;;;;;24.59;59.83;99530.69;5060631;28;45270;-81
2023/09/17 02:16:52;;;;;;;;;5.67;5.00;;;;;24.29;59.43;99475.91;5079517;27;45256;-83
2023/09/17 02:19:17;;;;;;;;;8.00;7.00;;;;;24.45;59.82;99501.00;5078475;28;46269;-84
2023/09/17 02:21:43;;;;;;;;;6.33;6.33;;;;;24.32;59.86;99489.16;5078594;28;45425;-81
2023/09/17 02:24:09;;;;;;;;;7.00;6.67;;;;;24.27;60.12;99473.31;5078696;28;45490;-83
2023/09/17 02:26:35;;;;;;;;;7.00;6.00;;;;;24.24;60.21;99472.59;5060200;28;45683;-81
2023/09/17 02:29:00;;;;;;;;;6.33;5.67;;;;;24.36;60.34;99490.75;5060404;28;46385;-82
2023/09/17 02:31:27;;;;;;;;;7.33;6.00;;;;;24.33;60.22;99480.19;5078552;28;45338;-81
2023/09/17 02:33:53;;;;;;;;;5.67;5.67;;;;;24.46;60.41;99507.22;5078971;28;45521;-83
2023/09/17 02:36:19;;;;;;;;;6.00;6.00;;;;;24.50;60.42;99522.19;5060268;28;45548;-82
2023/09/17 02:38:45;;;;;;;;;5.00;5.00;;;;;24.50;60.33;99522.19;5059599;28;46161;-82
2023/09/17 02:41:11;;;;;;;;;5.00;5.00;;;;;24.44;60.59;99517.97;5078495;28;45429;-83
2023/09/17 02:43:37;;;;;;;;;6.33;5.33;;;;;24.36;60.72;99502.28;5060010;28;45273;-84
2023/09/17 02:46:06;;;;;;;;;6.00;5.67;;;;;24.17;61.71;99486.22;5078809;28;45232;-81
2023/09/17 02:48:32;;;;;;;;;6.00;6.00;;;;;23.99;61.74;99454.97;5078018;28;45541;-81
2023/09/17 02:50:59;;;;;;;;;7.00;6.00;;;;;23.89;62.60;99437.63;5059821;28;45406;-82
2023/09/17 02:53:25;;;;;;;;;4.67;4.00;;;;;24.11;61.81;99482.91;5077624;27;45316;-83
2023/09/17 02:55:51;;;;;;;;;6.33;5.00;;;;;24.11;61.89;99481.13;5060073;28;45679;-83
2023/09/17 02:58:17;;;;;;;;;5.00;4.67;;;;;24.02;61.82;99469.03;5059789;28;45464;-81
2023/09/17 03:00:44;;;;;;;;;6.67;5.00;;;;;23.96;61.38;99457.78;5059222;28;45473;-83
2023/09/17 03:03:10;;;;;;;;;6.00;4.67;;;;;24.17;61.27;99491.56;5059767;28;45497;-83
2023/09/17 03:05:38;;;;;;;;;6.00;5.00;;;;;24.10;60.92;99476.72;5078249;28;45432;-83
2023/09/17 03:08:08;;;;;;;;;8.00;6.67;;;;;23.90;61.44;99437.56;5077720;28;46042;-81
2023/09/17 03:10:41;;;;;;;;;6.00;4.33;;;;;23.75;61.89;99419.50;5077811;28;45452;-83
2023/09/17 03:13:09;;;;;;;;;5.33;5.33;;;;;24.11;61.82;99477.59;5078085;28;45299;-83
2023/09/17 03:15:34;;;;;;;;;5.67;4.33;;;;;23.90;61.41;99444.72;5078070;28;45556;-83
2023/09/17 03:18:00;;;;;;;;;6.33;6.33;;;;;23.88;61.55;99427.91;5077749;28;46275;-81
2023/09/17 03:20:27;;;;;;;;;5.00;4.67;;;;;23.89;61.31;99424.28;5059731;28;45590;-83
2023/09/17 03:22:53;;;;;;;;;6.00;6.00;;;;;24.07;61.17;99454.63;5077936;28;45482;-81
2023/09/17 03:25:19;;;;;;;;;7.33;6.67;;;;;23.99;61.38;99444.28;5078005;28;45485;-81
2023/09/17 03:27:45;;;;;;;;;5.00;5.00;;;;;24.14;61.34;99469.47;5077577;28;46534;-81
2023/09/17 03:30:12;;;;;;;;;6.00;6.00;;;;;24.14;61.67;99461.47;5077371;28;45504;-84
2023/09/17 03:32:38;;;;;;;;;5.00;5.00;;;;;24.08;61.79;99459.06;5059169;28;45268;-84
2023/09/17 03:35:06;;;;;;;;;5.67;5.00;;;;;23.78;61.23;99411.41;5077686;27;45665;-83
2023/09/17 03:37:31;;;;;;;;;7.33;5.00;;;;;23.70;60.06;99392.19;5059342;28;46878;-83
2023/09/17 03:40:12;;;;;;;;;6.00;5.00;;;;;23.95;59.38;99426.69;5077585;28;45386;-82
2023/09/17 03:42:38;;;;;;;;;5.00;5.00;;;;;23.95;59.19;99411.53;5059220;28;45275;-83
2023/09/17 03:45:06;;;;;;;;;5.00;5.00;;;;;23.84;59.48;99387.16;5077517;28;45394;-83
2023/09/17 03:47:32;;;;;;;;;3.67;3.67;;;;;24.02;58.32;99423.69;5077215;28;46409;-82
2023/09/17 03:49:58;;;;;;;;;5.33;4.00;;;;;23.94;58.97;99409.81;5059194;28;45460;-83
2023/09/17 03:52:26;;;;;;;;;7.00;6.33;;;;;23.91;58.11;99393.09;5058997;28;45417;-80
2023/09/17 03:54:52;;;;;;;;;5.00;3.33;;;;;23.65;57.94;99344.38;5077223;28;45438;-83
2023/09/17 03:57:18;;;;;;;;;5.00;4.00;;;;;24.19;57.03;99414.97;5076921;28;45532;-81
2023/09/17 03:59:43;;;;;;;;;5.00;3.00;;;;;24.24;55.02;99403.22;5077046;28;45476;-80
2023/09/17 04:02:09;;;;;;;;;4.67;4.33;;;;;24.31;54.00;99391.31;5058571;28;45507;-81
2023/09/17 04:04:35;;;;;;;;;6.00;5.00;;;;;24.43;54.24;99401.44;5076911;28;45560;-83
2023/09/17 04:07:01;;;;;;;;;5.00;4.00;;;;;24.41;54.39;99400.63;5080523;28;45284;-83
2023/09/17 04:09:26;;;;;;;;;7.00;4.33;;;;;24.55;54.35;99432.09;5081040;27;45315;-80
2023/09/17 04:11:52;;;;;;;;;4.67;4.67;;;;;24.39;54.98;99399.84;5062500;28;45515;-81
2023/09/17 04:14:17;;;;;;;;;4.00;3.67;;;;;24.50;55.36;99421.63;5062483;28;45322;-83
2023/09/17 04:16:43;;;;;;;;;3.00;3.00;;;;;24.55;54.90;99440.09;5061869;27;45464;-81
2023/09/17 04:19:09;;;;;;;;;5.67;5.00;;;;;24.45;54.74;99420.91;5080606;27;45350;-81
2023/09/17 04:21:34;;;;;;;;;5.00;5.00;;;;;24.56;55.00;99450.72;5080640;28;45491;-81
2023/09/17 04:24:03;;;;;;;;;4.33;4.00;;;;;24.39;55.39;99418.53;5062836;28;45255;-82
2023/09/17 04:26:30;;;;;;;;;4.00;4.00;;;;;24.55;55.23;99453.44;5062537;28;45569;-83
2023/09/17 04:28:55;;;;;;;;;4.33;4.00;;;;;24.36;55.06;99411.53;5080351;28;45472;-81
2023/09/17 04:31:21;;;;;;;;;4.67;4.00;;;;;24.30;54.97;99400.28;5062185;28;45525;-83
2023/09/17 04:33:47;;;;;;;;;5.00;5.00;;;;;24.54;54.96;99449.91;5062425;28;45518;-82
2023/09/17 04:36:12;;;;;;;;;3.33;3.00;;;;;24.40;54.53;99433.63;5061581;28;47812;-81
2023/09/17 04:38:38;;;;;;;;;5.00;4.33;;;;;24.53;54.00;99447.31;5080388;28;45261;-81
2023/09/17 04:41:04;;;;;;;;;4.00;4.00;;;;;24.43;53.02;99422.78;5080324;28;45332;-81
2023/09/17 04:43:29;;;;;;;;;5.00;5.00;;;;;24.39;52.05;99398.06;5062568;28;45641;-82
2023/09/17 04:45:57;;;;;;;;;5.00;4.00;;;;;24.45;51.82;99390.69;5079977;28;46069;-83
2023/09/17 04:48:23;;;;;;;;;5.33;5.00;;;;;24.94;51.38;99455.22;5080288;28;45260;-83
2023/09/17 04:50:49;;;;;;;;;5.33;4.67;;;;;24.76;51.55;99403.53;5079945;27;45539;-83
2023/09/17 04:53:15;;;;;;;;;5.00;4.67;;;;;25.07;51.53;99445.72;5080141;28;45257;-82
2023/09/17 04:55:41;;;;;;;;;3.67;3.67;;;;;25.07;51.71;99444.81;5079836;28;45591;-82
2023/09/17 04:58:07;;;;;;;;;4.33;4.33;;;;;24.98;51.54;99435.44;5079764;28;45344;-82
2023/09/17 05:00:34;;;;;;;;;5.00;4.67;;;;;24.91;51.95;99425.97;5061808;28;45450;-83
2023/09/17 05:03:00;;;;;;;;;4.33;4.33;;;;;25.11;51.33;99441.06;5081126;28;45461;-83
2023/09/17 05:05:26;;;;;;;;;4.00;4.00;;;;;25.16;51.39;99453.28;5061440;28;45333;-82
2023/09/17 05:07:51;;;;;;;;;5.00;5.00;;;;;24.88;51.12;99407.44;5061907;28;45354;-83
2023/09/17 05:10:17;;;;;;;;;5.00;4.00;;;;;24.94;51.27;99416.03;5079609;28;45472;-83
2023/09/17 05:12:43;;;;;;;;;6.00;4.00;;;;;25.01;51.33;99427.31;5079930;27;45310;-82
2023/09/17 05:15:09;;;;;;;;;6.00;5.00;;;;;25.15;52.00;99458.72;5079680;28;45583;-81
2023/09/17 05:17:35;;;;;;;;;4.67;4.67;;;;;25.08;52.08;99446.56;5061265;28;45452;-83
2023/09/17 05:20:05;;;;;;;;;5.00;3.67;;;;;25.01;52.47;99435.31;5080011;28;45465;-83
2023/09/17 05:22:32;;;;;;;;;4.67;4.67;;;;;25.15;52.82;99448.88;5080229;28;45513;-83
2023/09/17 05:24:57;;;;;;;;;6.33;5.33;;;;;25.09;52.67;99443.84;5061011;28;48014;-83
2023/09/17 05:27:24;;;;;;;;;4.33;4.33;;;;;24.98;53.39;99430.09;5079539;28;45329;-83
2023/09/17 05:29:50;;;;;;;;;5.00;4.00;;;;;25.06;53.44;99451.97;5061253;28;45441;-83
2023/09/17 05:32:16;;;;;;;;;4.33;4.33;;;;;25.00;53.37;99452.28;5079962;28;45329;-83
2023/09/17 05:34:44;;;;;;;;;5.67;5.00;;;;;24.83;53.45;99434.38;5078829;28;48203;-82
2023/09/17 05:37:10;;;;;;;;;4.33;4.00;;;;;24.72;53.68;99426.84;5061173;28;45328;-83
2023/09/17 05:39:35;;;;;;;;;6.00;4.00;;;;;24.82;53.92;99445.97;5079930;28;45288;-82
2023/09/17 05:42:01;;;;;;;;;5.00;4.00;;;;;24.69;53.94;99429.66;5061137;28;45250;-82
2023/09/17 05:44:27;;;;;;;;;5.67;5.00;;;;;24.46;54.67;99401.31;5079448;28;45532;-83
2023/09/17 05:46:52;;;;;;;;;6.00;5.00;;;;;24.71;54.88;99469.63;5061098;28;45251;-83
2023/09/17 05:49:19;;;;;;;;;5.00;5.00;;;;;24.44;54.46;99432.53;5080111;28;45271;-80
2023/09/17 05:51:44;;;;;;;;;4.33;4.00;;;;;24.51;55.09;99449.19;5079512;28;45350;-82
2023/09/17 05:54:10;;;;;;;;;2.00;2.00;;;;;24.69;54.76;99484.88;5079008;28;45390;-83
2023/09/17 05:56:36;;;;;;;;;5.00;4.00;;;;;24.32;55.24;99414.41;5061499;27;45567;-84
2023/09/17 05:59:01;;;;;;;;;5.67;4.67;;;;;24.68;55.59;99483.16;5079400;27;45334;-84
2023/09/17 06:01:27;;;;;;;;;4.00;4.00;;;;;24.46;56.01;99444.03;5084120;28;45499;-84
2023/09/17 06:03:53;;;;;;;;;6.00;5.00;;;;;24.69;55.27;99482.19;5068787;28;45557;-82
2023/09/17 06:06:18;;;;;;;;;5.67;5.33;;;;;24.69;55.66;99471.50;5082422;28;45420;-82
2023/09/17 06:08:44;;;;;;;;;5.00;5.00;;;;;24.63;56.12;99472.69;5079119;28;45535;-81
2023/09/17 06:11:11;;;;;;;;;5.00;5.00;;;;;24.62;55.83;99470.94;5061035;28;45468;-83
2023/09/17 06:13:37;;;;;;;;;6.00;5.00;;;;;24.45;55.26;99441.41;5060860;28;46711;-83
2023/09/17 06:16:03;;;;;;;;;6.00;5.33;;;;;24.33;55.11;99430.38;5060316;28;45523;-83
2023/09/17 06:18:32;;;;;;;;;7.00;5.00;;;;;24.63;55.08;99487.81;5060859;28;45401;-84
2023/09/17 06:20:58;;;;;;;;;6.67;5.00;;;;;24.68;54.85;99497.34;5078632;28;45303;-84
2023/09/17 06:23:24;;;;;;;;;7.33;6.00;;;;;24.62;55.43;99460.25;5078346;27;46274;-83
2023/09/17 06:25:50;;;;;;;;;5.00;5.00;;;;;24.76;55.67;99489.00;5078596;27;45672;-85
2023/09/17 06:28:15;;;;;;;;;8.00;6.00;;;;;24.86;55.44;99494.78;5059444;28;45480;-85
2023/09/17 06:30:42;;;;;;;;;4.33;4.33;;;;;24.87;54.90;99499.19;5078860;28;45502;-83
2023/09/17 06:33:08;;;;;;;;;10.00;6.00;;;;;24.87;55.47;99485.81;5077318;28;45643;-82
2023/09/17 06:35:33;;;;;;;;;10.00;7.00;;;;;24.74;55.38;99459.69;5068138;28;45485;-83
2023/09/17 06:37:59;;;;;;;;;8.00;7.00;;;;;24.75;56.05;99455.19;5077843;28;45536;-83
2023/09/17 06:40:25;;;;;;;;;7.00;7.00;;;;;24.82;56.08;99464.69;5077808;27;45465;-82
2023/09/17 06:42:51;;;;;;;;;9.33;9.00;;;;;24.66;56.09;99461.84;5078815;28;45509;-82
2023/09/17 06:45:18;;;;;;;;;7.00;6.00;;;;;24.81;55.84;99474.50;5078798;27;45569;-81
2023/09/17 06:47:45;;;;;;;;;7.00;5.00;;;;;24.84;56.09;99472.63;5078822;28;45506;-83
2023/09/17 06:50:11;;;;;;;;;4.33;4.00;;;;;24.83;55.48;99474.44;5078400;28;45410;-82
2023/09/17 06:52:37;;;;;;;;;4.33;3.33;;;;;24.58;55.37;99416.78;5077840;28;45996;-83
2023/09/17 06:55:04;;;;;;;;;6.33;5.33;;;;;24.85;55.36;99450.31;5068907;27;45365;-83
2023/09/17 06:57:31;;;;;;;;;6.33;5.33;;;;;24.98;54.43;99454.16;5078544;28;45462;-82
2023/09/17 06:59:58;;;;;;;;;6.00;6.00;;;;;24.93;54.39;99435.66;5080648;28;45401;-84
2023/09/17 07:02:24;;;;;;;;;5.00;4.00;;;;;24.83;53.85;99430.81;5079467;28;45513;-83
2023/09/17 07:04:50;;;;;;;;;5.67;4.67;;;;;24.92;53.76;99444.63;5061380;28;45552;-83
2023/09/17 07:07:16;;;;;;;;;5.33;5.00;;;;;24.50;53.61;99356.66;5080109;28;45854;-84
2023/09/17 07:09:43;;;;;;;;;7.00;6.00;;;;;25.28;53.73;99486.59;5079934;27;45315;-83
2023/09/17 07:12:08;;;;;;;;;5.67;5.00;;;;;25.22;53.71;99473.53;5057879;28;46696;-84
2023/09/17 07:14:35;;;;;;;;;6.00;5.67;;;;;25.27;53.65;99473.31;5078087;27;45500;-83
2023/09/17 07:17:01;;;;;;;;;5.33;5.33;;;;;25.16;54.11;99445.25;5070555;27;45531;-85
2023/09/17 07:19:27;;;;;;;;;8.00;7.00;;;;;25.03;54.10;99420.06;5079708;28;45464;-83
2023/09/17 07:21:53;;;;;;;;;9.33;7.00;;;;;25.31;53.59;99454.38;5060008;28;46208;-84
2023/09/17 07:24:19;;;;;;;;;5.67;5.33;;;;;25.57;53.50;99481.66;5059736;28;45518;-79
2023/09/17 07:26:45;;;;;;;;;7.00;6.00;;;;;25.54;53.29;99463.09;5070576;27;45450;-80
2023/09/17 07:29:11;;;;;;;;;7.00;6.00;;;;;25.48;53.47;99444.69;5087621;27;45779;-82
2023/09/17 07:31:37;;;;;;;;;5.67;5.00;;;;;25.60;53.59;99461.00;5070214;27;45488;-82
2023/09/17 07:34:03;;;;;;;;;5.33;5.33;;;;;25.68;53.73;99465.94;5089446;27;45336;-81
2023/09/17 07:36:29;;;;;;;;;5.00;5.00;;;;;25.80;53.83;99484.09;5087168;27;45435;-82
2023/09/17 07:38:55;;;;;;;;;6.00;5.33;;;;;25.81;54.42;99484.94;5085551;27;45492;-81
2023/09/17 07:41:20;;;;;;;;;6.00;5.00;;;;;25.82;54.00;99470.59;5059790;28;46378;-83
2023/09/17 07:43:46;;;;;;;;;5.00;4.33;;;;;25.79;53.82;99457.41;5060333;28;45532;-84
2023/09/17 07:46:13;;;;;;;;;6.00;6.00;;;;;26.14;53.45;99494.91;5078639;27;45413;-83
2023/09/17 07:48:39;;;;;;;;;7.33;6.33;;;;;26.07;53.23;99439.97;5078994;28;45430;-84
2023/09/17 07:51:05;;;;;;;;;5.00;5.00;;;;;26.58;52.67;99479.25;5078699;28;46478;-82
2023/09/17 07:53:32;;;;;;;;;6.00;6.00;;;;;26.79;52.53;99462.97;5059306;28;45496;-83
2023/09/17 07:55:58;;;;;;;;;5.67;5.67;;;;;26.98;52.52;99452.09;5077285;28;45584;-81
2023/09/17 07:58:24;;;;;;;;;7.33;5.00;;;;;27.17;51.47;99447.41;5078881;28;45523;-81
2023/09/17 08:00:50;;;;;;;;;5.00;5.00;;;;;27.57;51.17;99479.19;5059240;28;46564;-83
2023/09/17 08:03:17;;;;;;;;;9.00;9.00;;;;;27.93;50.64;99497.72;5077894;28;45341;-79
2023/09/17 08:05:47;;;;;;;;;6.00;6.00;;;;;28.09;50.24;99478.88;5077176;28;45494;-80
2023/09/17 08:08:14;;;;;;;;;8.33;7.00;;;;;28.35;49.49;99485.38;5077335;27;45588;-80
2023/09/17 08:10:40;;;;;;;;;5.00;5.00;;;;;28.50;48.26;99480.00;5086500;27;45413;-81
2023/09/17 08:13:07;;;;;;;;;7.00;5.67;;;;;28.53;46.52;99477.16;5061217;28;45470;-81
2023/09/17 08:15:34;;;;;;;;;7.00;5.00;;;;;28.51;46.29;99466.53;5077235;28;45338;-84
2023/09/17 08:18:00;;;;;;;;;5.00;4.00;;;;;28.61;45.44;99468.63;5065046;27;45355;-79
2023/09/17 08:20:25;;;;;;;;;9.00;8.00;;;;;28.54;45.47;99442.13;5075868;27;45427;-79
2023/09/17 08:22:51;;;;;;;;;6.00;6.00;;;;;28.52;45.17;99444.06;5057379;28;45365;-81
2023/09/17 08:25:18;;;;;;;;;7.00;6.00;;;;;28.56;45.74;99461.72;5078860;27;45257;-84
2023/09/17 08:27:44;;;;;;;;;4.33;3.67;;;;;28.71;45.26;99480.53;5065446;27;45613;-82
2023/09/17 08:30:13;;;;;;;;;6.67;5.33;;;;;28.80;45.21;99471.03;5065198;28;47698;-83
2023/09/17 08:32:44;;;;;;;;;6.67;5.00;;;;;29.00;45.50;99481.38;5081506;28;45559;-85
2023/09/17 08:35:14;;;;;;;;;6.33;6.00;;;;;29.13;45.26;99465.38;5080935;28;45413;-83
2023/09/17 08:37:40;;;;;;;;;7.00;6.00;;;;;29.40;44.88;99484.22;5078356;28;45478;-78
2023/09/17 08:40:09;;;;;;;;;6.00;5.00;;;;;29.58;45.72;99501.00;5077617;28;45287;-79
2023/09/17 08:42:37;;;;;;;;;7.33;7.00;;;;;29.71;44.81;99507.34;5076679;28;45370;-78
2023/09/17 08:45:05;;;;;;;;;7.00;7.00;;;;;29.74;42.95;99503.56;5077219;27;45501;-78
2023/09/17 08:47:31;;;;;;;;;7.00;6.00;;;;;29.87;44.08;99499.13;5086982;27;45334;-76
2023/09/17 08:49:57;;;;;;;;;8.67;6.33;;;;;30.02;44.13;99494.50;5083313;28;45460;-81
2023/09/17 08:52:25;;;;;;;;;5.33;5.33;;;;;30.19;43.70;99490.69;5062968;28;45532;-78
2023/09/17 08:54:52;;;;;;;;;6.00;5.00;;;;;30.36;43.85;99480.59;5061753;28;45422;-81
2023/09/17 08:57:22;;;;;;;;;6.33;5.33;;;;;30.68;43.75;99490.00;5080686;28;45556;-78
2023/09/17 08:59:57;;;;;;;;;7.33;6.67;;;;;31.07;42.71;99492.69;5059811;27;45537;-79
2023/09/17 09:02:31;;;;;;;;;7.00;6.33;;;;;31.49;41.38;99486.03;5076977;28;45233;-81
2023/09/17 09:05:00;;;;;;;;;8.67;5.33;;;;;31.57;40.11;99461.16;5071110;28;45365;-84
2023/09/17 09:07:28;;;;;;;;;6.33;6.00;;;;;31.79;41.18;99467.66;5081237;28;45510;-83
2023/09/17 09:09:54;;;;;;;;;6.33;6.00;;;;;32.17;40.08;99464.78;5083795;28;45411;-81
2023/09/17 09:12:21;;;;;;;;;7.00;6.00;;;;;32.59;39.89;99477.75;5062991;28;45540;-80
2023/09/17 09:14:48;;;;;;;;;8.33;7.00;;;;;32.79;39.19;99476.19;5085607;27;45300;-80
2023/09/17 09:17:14;;;;;;;;;7.67;5.00;;;;;32.90;39.24;99455.41;5062301;28;45327;-81
2023/09/17 09:19:40;;;;;;;;;8.00;7.67;;;;;33.36;38.61;99483.31;5080264;27;45482;-80
2023/09/17 09:22:06;;;;;;;;;8.00;6.00;;;;;33.32;38.05;99464.75;5045385;28;45367;-84
2023/09/17 09:24:46;;;;;;;;;7.00;6.67;;;;;33.24;37.46;99473.50;5079691;27;45414;-80
2023/09/17 09:27:12;;;;;;;;;8.67;7.33;;;;;33.00;37.98;99474.47;5079741;27;45236;-81
2023/09/17 09:29:42;;;;;;;;;8.33;7.33;;;;;32.90;37.65;99489.72;5079049;28;45552;-80
2023/09/17 09:32:11;;;;;;;;;4.67;4.67;;;;;32.68;37.57;99491.41;5079414;28;45512;-80
2023/09/17 09:34:38;;;;;;;;;6.00;5.67;;;;;32.20;37.84;99490.69;5080794;28;45438;-82
2023/09/17 09:37:06;;;;;;;;;7.67;5.67;;;;;32.20;38.73;99482.59;5082044;27;45254;-80
2023/09/17 09:39:32;;;;;;;;;4.00;4.00;;;;;32.33;38.61;99502.25;5060565;28;45658;-81
2023/09/17 09:41:59;;;;;;;;;5.67;5.33;;;;;32.24;39.21;99495.72;5062913;28;45393;-84
2023/09/17 09:44:25;;;;;;;;;8.00;6.00;;;;;32.17;39.39;99478.28;5061472;28;45279;-82
2023/09/17 09:47:02;;;;;;;;;6.33;5.67;;;;;31.95;39.40;99497.06;5079300;28;45346;-83
2023/09/17 09:49:40;;;;;;;;;10.67;9.67;;;;;32.01;38.97;99510.13;5058372;28;46271;-83
2023/09/17 09:52:05;;;;;;;;;6.67;6.67;;;;;32.13;38.61;99500.22;5062962;28;45470;-83
2023/09/17 09:54:31;;;;;;;;;7.00;5.00;;;;;32.22;39.05;99499.53;5078759;27;45667;-84
2023/09/17 09:56:58;;;;;;;;;6.67;6.00;;;;;32.33;39.18;99506.81;5062033;28;45530;-82
2023/09/17 09:59:25;;;;;;;;;7.00;5.67;;;;;32.25;39.22;99467.75;5068465;28;48057;-82
2023/09/17 10:01:51;;;;;;;;;4.00;3.00;;;;;32.42;39.17;99457.44;5078166;28;45747;-79
2023/09/17 10:04:18;;;;;;;;;5.33;5.33;;;;;32.62;38.05;99439.69;5078196;28;45359;-82
2023/09/17 10:06:45;;;;;;;;;8.00;7.67;;;;;32.73;38.30;99476.66;5078174;28;45327;-81
2023/09/17 10:09:13;;;;;;;;;7.33;5.67;;;;;32.75;38.08;99482.81;5077067;28;45466;-83
2023/09/17 10:11:39;;;;;;;;;6.67;5.67;;;;;32.75;38.56;99480.13;5077471;28;45418;-81
2023/09/17 10:14:06;;;;;;;;;4.33;4.33;;;;;32.93;38.43;99491.31;5067940;27;45314;-80
2023/09/17 10:16:34;;;;;;;;;4.67;4.67;;;;;32.87;39.04;99469.19;5078011;28;45508;-82
2023/09/17 10:19:00;;;;;;;;;5.67;5.67;;;;;32.93;37.76;99456.13;5077701;28;45431;-81
2023/09/17 10:21:27;;;;;;;;;5.00;4.33;;;;;33.01;37.85;99457.25;5077853;28;45359;-81
2023/09/17 10:23:57;;;;;;;;;4.67;4.00;;;;;33.16;37.95;99484.09;5077921;27;45554;-80
2023/09/17 10:26:24;;;;;;;;;7.00;6.33;;;;;33.05;38.02;99457.88;5077947;28;45572;-81
2023/09/17 10:28:54;;;;;;;;;4.00;4.00;;;;;33.19;37.20;99497.38;5078039;28;45541;-81
2023/09/17 10:31:22;;;;;;;;;5.33;4.00;;;;;32.93;36.64;99489.50;5059799;28;45277;-82
2023/09/17 10:33:49;;;;;;;;;4.67;4.67;;;;;32.90;37.81;99500.53;5078710;28;45359;-81
2023/09/17 10:36:16;;;;;;;;;6.33;6.00;;;;;33.03;37.60;99506.69;5078572;28;45391;-81
2023/09/17 10:38:43;;;;;;;;;9.00;7.00;;;;;32.78;37.44;99460.97;5077909;28;45746;-81
2023/09/17 10:41:10;;;;;;;;;5.00;4.00;;;;;32.86;38.16;99478.28;5059561;28;45370;-80
2023/09/17 10:43:36;;;;;;;;;12.33;8.33;;;;;32.92;38.03;99497.72;5059883;28;45264;-81
2023/09/17 10:46:06;;;;;;;;;6.67;6.33;;;;;32.90;38.47;99485.16;5078350;28;45578;-81
2023/09/17 10:48:32;;;;;;;;;5.00;5.00;;;;;32.55;38.29;99447.44;5059714;27;46437;-80
2023/09/17 10:50:59;;;;;;;;;7.33;5.00;;;;;32.90;37.76;99495.97;5078241;28;45529;-83
2023/09/17 10:53:26;;;;;;;;;5.00;4.00;;;;;32.94;38.73;99479.53;5077562;28;45450;-81
2023/09/17 10:56:00;;;;;;;;;7.67;7.00;;;;;33.00;38.03;99479.03;5078470;28;45469;-82
2023/09/17 10:58:37;;;;;;;;;5.67;5.33;;;;;32.82;37.46;99482.22;5077926;28;46272;-81
2023/09/17 11:01:12;;;;;;;;;6.00;5.67;;;;;32.85;38.33;99494.66;5077758;28;45249;-82
2023/09/17 11:03:44;;;;;;;;;5.67;5.67;;;;;32.78;37.77;99466.38;5059653;28;45250;-81
2023/09/17 11:06:16;;;;;;;;;4.00;3.00;;;;;32.49;37.18;99447.84;5077615;28;45476;-83
2023/09/17 11:08:44;;;;;;;;;7.00;5.33;;;;;32.35;37.94;99494.91;5077186;28;45986;-82
2023/09/17 11:11:16;;;;;;;;;6.00;5.67;;;;;31.99;38.57;99474.22;5077650;27;45531;-82
2023/09/17 11:13:46;;;;;;;;;4.00;3.67;;;;;31.99;38.65;99485.91;5058870;28;45343;-82
2023/09/17 11:16:24;;;;;;;;;7.00;7.00;;;;;31.96;39.47;99505.06;5059666;28;45367;-81
2023/09/17 11:19:21;;;;;;;;;9.00;8.00;;;;;31.75;40.01;99507.50;5059363;28;47610;-82
2023/09/17 11:22:13;;;;;;;;;7.00;7.00;;;;;31.41;41.03;99507.28;5058854;27;45577;-81
2023/09/17 11:24:39;;;;;;;;;10.00;8.00;;;;;31.32;40.59;99494.47;5059778;28;45548;-81
2023/09/17 11:27:05;;;;;;;;;6.67;6.00;;;;;31.16;41.65;99491.16;5061077;28;45265;-81
2023/09/17 11:29:44;;;;;;;;;4.67;4.33;;;;;31.02;41.74;99474.16;5078951;28;46617;-83
2023/09/17 11:32:11;;;;;;;;;7.33;5.67;;;;;30.63;42.06;99421.22;5077689;28;45363;-81
2023/09/17 11:34:41;;;;;;;;;8.33;6.67;;;;;30.85;42.80;99455.59;5078155;28;45472;-82